aviador You're here:

CYPH Decoded Metar

INUKJUAK in QC, CANADA
Report Time2017-07-24 16:00:00
UTC Time2017-07-24 16:43:10
Flight Rules vfr VFR
Wind200° at 18 Gusting to 23 kt
W.Decomp.*RWY 25: 15.4 kt HW 9.3 kt LCW
W.Rank200° ranks 15
Current wind is above 200° avg. (11.9)
Visibility9999 m
Phenomena:N/A
Clouds:Overcast 100 Hf
Expected CloudBase > 2,400 ft AGL from Temp-Dew spread
Ceiling10,000 ft
Temp10°C (ISA -5)
Dew Point04°C (67% RH)
AAT2.2°C
QNH1015 hPa
Density Alt-541 ft
Elevation10 ft
Report Wrong Elevation
Raw Report
CYPH 241600Z AUTO 20018G23KT 9SM OVC100 10/04 A2996 RMK SLP149=

Extra information for CYPH:More info

Metar Taf Metar & Taf Last 4 Metars F.Rules Stats Wind Profile Meteogram Temp Stats Airport Information Weather charts Add Link Nearby VenuesMetar ALERT Operation Metar Decoded Social comments